sensor_id;sensor_type;location;lat;lon;timestamp;temperature;humidity
28546;DHT22;15749;49.606;8.738;2023-11-21T02:41:45;15.50;1.00
28546;DHT22;15749;49.606;8.738;2023-11-21T04:52:54;15.60;1.00
28546;DHT22;15749;49.606;8.738;2023-11-21T04:55:23;15.70;1.00
28546;DHT22;15749;49.606;8.738;2023-11-21T04:57:55;15.60;1.00
28546;DHT22;15749;49.606;8.738;2023-11-21T05:01:08;15.70;1.00
28546;DHT22;15749;49.606;8.738;2023-11-21T05:03:38;15.60;1.00
28546;DHT22;15749;49.606;8.738;2023-11-21T05:06:10;15.60;1.00
28546;DHT22;15749;49.606;8.738;2023-11-21T05:08:41;15.70;1.00
28546;DHT22;15749;49.606;8.738;2023-11-21T05:11:12;15.70;1.00
28546;DHT22;15749;49.606;8.738;2023-11-21T05:13:52;15.70;1.00
28546;DHT22;15749;49.606;8.738;2023-11-21T05:16:25;15.70;1.00
28546;DHT22;15749;49.606;8.738;2023-11-21T05:18:57;15.70;1.00
28546;DHT22;15749;49.606;8.738;2023-11-21T05:21:29;15.80;1.00
28546;DHT22;15749;49.606;8.738;2023-11-21T05:24:02;15.80;1.00
28546;DHT22;15749;49.606;8.738;2023-11-21T05:26:32;15.80;1.00
28546;DHT22;15749;49.606;8.738;2023-11-21T05:29:02;15.80;1.00
28546;DHT22;15749;49.606;8.738;2023-11-21T05:31:32;15.80;1.00
28546;DHT22;15749;49.606;8.738;2023-11-21T05:34:01;15.80;1.00
28546;DHT22;15749;49.606;8.738;2023-11-21T05:36:31;15.80;1.00
28546;DHT22;15749;49.606;8.738;2023-11-21T05:42:37;15.80;1.00
28546;DHT22;15749;49.606;8.738;2023-11-21T05:45:07;15.90;1.00
28546;DHT22;15749;49.606;8.738;2023-11-21T05:47:41;15.90;1.00
28546;DHT22;15749;49.606;8.738;2023-11-21T05:50:37;15.90;1.00
28546;DHT22;15749;49.606;8.738;2023-11-21T05:57:46;15.90;1.00
28546;DHT22;15749;49.606;8.738;2023-11-21T06:00:18;15.90;1.00
28546;DHT22;15749;49.606;8.738;2023-11-21T06:05:51;15.90;1.00
28546;DHT22;15749;49.606;8.738;2023-11-21T06:18:47;15.90;1.00
28546;DHT22;15749;49.606;8.738;2023-11-21T06:21:16;15.90;1.00
28546;DHT22;15749;49.606;8.738;2023-11-21T06:23:46;15.90;1.00
28546;DHT22;15749;49.606;8.738;2023-11-21T06:26:54;15.90;1.00
28546;DHT22;15749;49.606;8.738;2023-11-21T06:29:27;15.90;1.00
28546;DHT22;15749;49.606;8.738;2023-11-21T06:31:59;15.90;1.00
28546;DHT22;15749;49.606;8.738;2023-11-21T06:34:38;15.90;1.00
28546;DHT22;15749;49.606;8.738;2023-11-21T06:41:57;15.90;1.00
28546;DHT22;15749;49.606;8.738;2023-11-21T06:44:29;16.00;1.00
28546;DHT22;15749;49.606;8.738;2023-11-21T06:47:01;15.90;1.00
28546;DHT22;15749;49.606;8.738;2023-11-21T06:49:30;15.90;1.00
28546;DHT22;15749;49.606;8.738;2023-11-21T17:52:18;16.10;1.00
28546;DHT22;15749;49.606;8.738;2023-11-21T17:54:49;16.20;1.00
28546;DHT22;15749;49.606;8.738;2023-11-21T17:57:18;16.20;1.00
28546;DHT22;15749;49.606;8.738;2023-11-21T17:59:48;16.10;1.00
28546;DHT22;15749;49.606;8.738;2023-11-21T18:02:18;16.20;1.00
28546;DHT22;15749;49.606;8.738;2023-11-21T18:04:48;16.20;1.00
28546;DHT22;15749;49.606;8.738;2023-11-21T18:07:18;16.20;1.00
28546;DHT22;15749;49.606;8.738;2023-11-21T18:09:48;16.10;1.00
28546;DHT22;15749;49.606;8.738;2023-11-21T18:12:17;16.20;1.00
28546;DHT22;15749;49.606;8.738;2023-11-21T18:14:48;16.20;1.00
28546;DHT22;15749;49.606;8.738;2023-11-21T18:17:19;16.20;1.00
28546;DHT22;15749;49.606;8.738;2023-11-21T18:19:48;16.20;1.00
28546;DHT22;15749;49.606;8.738;2023-11-21T18:22:24;16.20;1.00
28546;DHT22;15749;49.606;8.738;2023-11-21T18:24:54;16.20;1.00
28546;DHT22;15749;49.606;8.738;2023-11-21T18:27:25;16.20;1.00
28546;DHT22;15749;49.606;8.738;2023-11-21T18:29:56;16.20;1.00
28546;DHT22;15749;49.606;8.738;2023-11-21T18:32:26;16.20;1.00
28546;DHT22;15749;49.606;8.738;2023-11-21T18:34:55;16.30;1.00
28546;DHT22;15749;49.606;8.738;2023-11-21T18:37:26;16.20;1.00
28546;DHT22;15749;49.606;8.738;2023-11-21T18:39:55;16.20;1.00
28546;DHT22;15749;49.606;8.738;2023-11-21T18:42:24;16.20;1.00
28546;DHT22;15749;49.606;8.738;2023-11-21T18:44:55;16.20;1.00
28546;DHT22;15749;49.606;8.738;2023-11-21T18:47:27;16.20;1.00
28546;DHT22;15749;49.606;8.738;2023-11-21T18:49:56;16.20;1.00
28546;DHT22;15749;49.606;8.738;2023-11-21T18:52:27;16.20;1.00
28546;DHT22;15749;49.606;8.738;2023-11-21T18:54:56;16.20;1.00
28546;DHT22;15749;49.606;8.738;2023-11-21T18:57:27;16.30;1.00
28546;DHT22;15749;49.606;8.738;2023-11-21T18:59:56;16.20;1.00
28546;DHT22;15749;49.606;8.738;2023-11-21T19:02:25;16.20;1.00
28546;DHT22;15749;49.606;8.738;2023-11-21T19:04:54;16.30;1.00
28546;DHT22;15749;49.606;8.738;2023-11-21T19:07:24;16.20;1.00
28546;DHT22;15749;49.606;8.738;2023-11-21T19:09:57;16.30;1.00
28546;DHT22;15749;49.606;8.738;2023-11-21T19:12:26;16.30;1.00
28546;DHT22;15749;49.606;8.738;2023-11-21T19:14:55;16.30;1.00
28546;DHT22;15749;49.606;8.738;2023-11-21T19:17:24;16.30;1.00
28546;DHT22;15749;49.606;8.738;2023-11-21T19:19:53;16.20;1.00
28546;DHT22;15749;49.606;8.738;2023-11-21T19:22:24;16.30;1.00
28546;DHT22;15749;49.606;8.738;2023-11-21T19:24:53;16.20;1.00
28546;DHT22;15749;49.606;8.738;2023-11-21T19:27:24;16.20;1.00
28546;DHT22;15749;49.606;8.738;2023-11-21T19:29:53;16.30;1.00
28546;DHT22;15749;49.606;8.738;2023-11-21T19:32:23;16.30;1.00
28546;DHT22;15749;49.606;8.738;2023-11-21T19:34:52;16.30;1.00
28546;DHT22;15749;49.606;8.738;2023-11-21T19:37:21;16.30;1.00
28546;DHT22;15749;49.606;8.738;2023-11-21T19:39:50;16.30;1.00
28546;DHT22;15749;49.606;8.738;2023-11-21T19:42:20;16.30;1.00
28546;DHT22;15749;49.606;8.738;2023-11-21T19:44:52;16.20;1.00
28546;DHT22;15749;49.606;8.738;2023-11-21T19:47:21;16.30;1.00
28546;DHT22;15749;49.606;8.738;2023-11-21T19:49:51;16.30;1.00
28546;DHT22;15749;49.606;8.738;2023-11-21T19:52:21;16.30;1.00
28546;DHT22;15749;49.606;8.738;2023-11-21T19:54:53;16.30;1.00
28546;DHT22;15749;49.606;8.738;2023-11-21T19:57:23;16.20;1.00
28546;DHT22;15749;49.606;8.738;2023-11-21T19:59:54;16.30;1.00
28546;DHT22;15749;49.606;8.738;2023-11-21T20:02:24;16.30;1.00
28546;DHT22;15749;49.606;8.738;2023-11-21T20:04:54;16.30;1.00
28546;DHT22;15749;49.606;8.738;2023-11-21T20:07:23;16.30;1.00
28546;DHT22;15749;49.606;8.738;2023-11-21T20:09:53;16.20;1.00
28546;DHT22;15749;49.606;8.738;2023-11-21T20:12:23;16.20;1.00
28546;DHT22;15749;49.606;8.738;2023-11-21T20:14:54;16.30;1.00
28546;DHT22;15749;49.606;8.738;2023-11-21T20:17:24;16.30;1.00
28546;DHT22;15749;49.606;8.738;2023-11-21T20:19:55;16.20;1.00
28546;DHT22;15749;49.606;8.738;2023-11-21T20:22:24;16.20;1.00
28546;DHT22;15749;49.606;8.738;2023-11-21T20:24:54;16.20;1.00
28546;DHT22;15749;49.606;8.738;2023-11-21T20:27:24;16.30;1.00
28546;DHT22;15749;49.606;8.738;2023-11-21T20:29:55;16.20;1.00
28546;DHT22;15749;49.606;8.738;2023-11-21T20:32:27;16.30;1.00
28546;DHT22;15749;49.606;8.738;2023-11-21T20:34:57;16.20;1.00
28546;DHT22;15749;49.606;8.738;2023-11-21T20:37:30;16.20;1.00
28546;DHT22;15749;49.606;8.738;2023-11-21T20:40:01;16.20;1.00
28546;DHT22;15749;49.606;8.738;2023-11-21T20:42:35;16.20;1.00
28546;DHT22;15749;49.606;8.738;2023-11-21T20:45:11;16.20;1.00
28546;DHT22;15749;49.606;8.738;2023-11-21T20:47:41;16.20;1.00
28546;DHT22;15749;49.606;8.738;2023-11-21T20:50:11;16.20;1.00
28546;DHT22;15749;49.606;8.738;2023-11-21T20:52:40;16.20;1.00
28546;DHT22;15749;49.606;8.738;2023-11-21T20:55:09;16.20;1.00
28546;DHT22;15749;49.606;8.738;2023-11-21T20:57:39;16.20;1.00
28546;DHT22;15749;49.606;8.738;2023-11-21T21:00:12;16.20;1.00
28546;DHT22;15749;49.606;8.738;2023-11-21T21:02:43;16.10;1.00
28546;DHT22;15749;49.606;8.738;2023-11-21T21:05:15;16.10;1.00
28546;DHT22;15749;49.606;8.738;2023-11-21T21:07:45;16.10;1.00
28546;DHT22;15749;49.606;8.738;2023-11-21T21:10:14;16.10;1.00
28546;DHT22;15749;49.606;8.738;2023-11-21T21:12:43;16.10;1.00
28546;DHT22;15749;49.606;8.738;2023-11-21T21:15:14;16.10;1.00
28546;DHT22;15749;49.606;8.738;2023-11-21T21:17:43;16.10;1.00
28546;DHT22;15749;49.606;8.738;2023-11-21T21:20:14;16.00;1.00
28546;DHT22;15749;49.606;8.738;2023-11-21T21:22:43;16.00;1.00
28546;DHT22;15749;49.606;8.738;2023-11-21T21:25:13;15.90;1.00
28546;DHT22;15749;49.606;8.738;2023-11-21T21:27:42;15.90;1.00
28546;DHT22;15749;49.606;8.738;2023-11-21T21:30:11;15.90;1.00
28546;DHT22;15749;49.606;8.738;2023-11-21T21:32:42;15.90;1.00
28546;DHT22;15749;49.606;8.738;2023-11-21T21:35:11;15.90;1.00
28546;DHT22;15749;49.606;8.738;2023-11-21T21:37:40;15.80;1.00
28546;DHT22;15749;49.606;8.738;2023-11-21T21:40:11;15.80;1.00
28546;DHT22;15749;49.606;8.738;2023-11-21T21:42:40;15.80;1.00
28546;DHT22;15749;49.606;8.738;2023-11-21T21:45:10;15.80;1.00
28546;DHT22;15749;49.606;8.738;2023-11-21T21:47:39;15.70;1.00
28546;DHT22;15749;49.606;8.738;2023-11-21T21:50:10;15.70;1.00
28546;DHT22;15749;49.606;8.738;2023-11-21T21:52:40;15.70;1.00
28546;DHT22;15749;49.606;8.738;2023-11-21T21:55:09;15.70;1.00
28546;DHT22;15749;49.606;8.738;2023-11-21T21:57:41;15.70;1.00
28546;DHT22;15749;49.606;8.738;2023-11-21T22:00:12;15.60;1.00
28546;DHT22;15749;49.606;8.738;2023-11-21T22:02:42;15.60;1.00
28546;DHT22;15749;49.606;8.738;2023-11-21T22:05:13;15.60;1.00
28546;DHT22;15749;49.606;8.738;2023-11-21T22:07:42;15.60;1.00
28546;DHT22;15749;49.606;8.738;2023-11-21T22:10:11;15.60;1.00
28546;DHT22;15749;49.606;8.738;2023-11-21T22:12:40;15.50;1.00
28546;DHT22;15749;49.606;8.738;2023-11-21T22:15:10;15.50;1.00
28546;DHT22;15749;49.606;8.738;2023-11-21T22:17:42;15.50;1.00
28546;DHT22;15749;49.606;8.738;2023-11-21T22:20:13;15.50;1.00
28546;DHT22;15749;49.606;8.738;2023-11-21T22:22:42;15.50;1.00
28546;DHT22;15749;49.606;8.738;2023-11-21T22:25:11;15.40;1.00
28546;DHT22;15749;49.606;8.738;2023-11-21T22:27:41;15.40;1.00
28546;DHT22;15749;49.606;8.738;2023-11-21T22:30:10;15.40;1.00
28546;DHT22;15749;49.606;8.738;2023-11-21T22:32:39;15.40;1.00
28546;DHT22;15749;49.606;8.738;2023-11-21T22:35:09;15.30;1.00
28546;DHT22;15749;49.606;8.738;2023-11-21T22:37:40;15.30;1.00
28546;DHT22;15749;49.606;8.738;2023-11-21T22:40:09;15.30;1.00
28546;DHT22;15749;49.606;8.738;2023-11-21T22:42:38;15.30;1.00
28546;DHT22;15749;49.606;8.738;2023-11-21T22:45:08;15.30;1.00
28546;DHT22;15749;49.606;8.738;2023-11-21T22:47:38;15.20;1.00
28546;DHT22;15749;49.606;8.738;2023-11-21T22:50:08;15.20;1.00
28546;DHT22;15749;49.606;8.738;2023-11-21T22:52:40;15.20;1.00
28546;DHT22;15749;49.606;8.738;2023-11-21T22:55:09;15.20;1.00
28546;DHT22;15749;49.606;8.738;2023-11-21T22:57:38;15.20;1.00
28546;DHT22;15749;49.606;8.738;2023-11-21T23:00:09;15.20;1.00
28546;DHT22;15749;49.606;8.738;2023-11-21T23:02:44;15.10;1.00
28546;DHT22;15749;49.606;8.738;2023-11-21T23:05:14;15.10;1.00
28546;DHT22;15749;49.606;8.738;2023-11-21T23:07:45;15.10;1.00
28546;DHT22;15749;49.606;8.738;2023-11-21T23:10:14;15.10;1.00
28546;DHT22;15749;49.606;8.738;2023-11-21T23:12:45;15.10;1.00
28546;DHT22;15749;49.606;8.738;2023-11-21T23:15:15;15.00;1.00
28546;DHT22;15749;49.606;8.738;2023-11-21T23:17:44;15.00;1.00
28546;DHT22;15749;49.606;8.738;2023-11-21T23:20:13;15.00;1.00
28546;DHT22;15749;49.606;8.738;2023-11-21T23:22:50;14.90;1.00
28546;DHT22;15749;49.606;8.738;2023-11-21T23:25:19;14.90;1.00
28546;DHT22;15749;49.606;8.738;2023-11-21T23:27:48;14.90;1.00
28546;DHT22;15749;49.606;8.738;2023-11-21T23:30:18;14.90;1.00
28546;DHT22;15749;49.606;8.738;2023-11-21T23:32:47;14.90;1.00
28546;DHT22;15749;49.606;8.738;2023-11-21T23:35:16;14.80;1.00
28546;DHT22;15749;49.606;8.738;2023-11-21T23:37:45;14.80;1.00
28546;DHT22;15749;49.606;8.738;2023-11-21T23:40:16;14.80;1.00
28546;DHT22;15749;49.606;8.738;2023-11-21T23:42:45;14.80;1.00
28546;DHT22;15749;49.606;8.738;2023-11-21T23:45:15;14.80;1.00
28546;DHT22;15749;49.606;8.738;2023-11-21T23:47:44;14.70;1.00
28546;DHT22;15749;49.606;8.738;2023-11-21T23:50:13;14.70;1.00
28546;DHT22;15749;49.606;8.738;2023-11-21T23:52:42;14.70;1.00
28546;DHT22;15749;49.606;8.738;2023-11-21T23:55:12;14.60;1.00
28546;DHT22;15749;49.606;8.738;2023-11-21T23:57:42;14.60;1.00
